createdAt,value
2019-04-21T00:00:25.949Z,64.98
2019-04-21T00:01:24.410Z,65.39
2019-04-21T00:02:30.735Z,64.74
2019-04-21T00:03:34.512Z,64.67
2019-04-21T00:04:40.822Z,65.28
2019-04-21T00:05:49.637Z,64.95
2019-04-21T00:06:48.141Z,65.28
2019-04-21T00:07:46.990Z,64.98
2019-04-21T00:09:09.819Z,64.98
2019-04-21T00:09:52.370Z,65.49
2019-04-21T00:10:48.223Z,65.80
2019-04-21T00:11:47.196Z,65.18
2019-04-21T00:12:40.597Z,65.11
2019-04-21T00:13:38.063Z,64.98
2019-04-21T00:14:40.969Z,64.87
2019-04-21T00:15:33.183Z,64.77
2019-04-21T00:16:35.689Z,64.98
2019-04-21T00:17:27.075Z,64.87
2019-04-21T00:18:25.390Z,64.87
2019-04-21T00:19:28.385Z,65.18
2019-04-21T00:20:35.263Z,65.18
2019-04-21T00:21:34.567Z,65.49
2019-04-21T00:22:40.508Z,65.80
2019-04-21T00:23:42.522Z,65.59
2019-04-21T00:24:39.073Z,66.11
2019-04-21T00:25:38.808Z,66.52
2019-04-21T00:26:45.737Z,66.21
2019-04-21T00:27:43.748Z,66.42
2019-04-21T00:28:58.142Z,65.52
2019-04-21T00:29:46.907Z,64.90
2019-04-21T00:30:47.052Z,65.73
2019-04-21T00:31:44.560Z,65.62
2019-04-21T00:32:35.580Z,66.24
2019-04-21T00:33:30.028Z,65.83
2019-04-21T00:34:25.725Z,65.62
2019-04-21T00:35:27.477Z,66.24
2019-04-21T00:36:37.822Z,66.04
2019-04-21T00:37:45.156Z,66.35
2019-04-21T00:38:51.375Z,66.14
2019-04-21T00:40:50.510Z,65.83
2019-04-21T00:41:43.727Z,65.73
2019-04-21T00:42:43.537Z,66.24
2019-04-21T00:43:41.273Z,66.27
2019-04-21T00:44:38.122Z,66.66
2019-04-21T00:45:39.251Z,66.45
2019-04-21T00:46:42.813Z,66.27
2019-04-21T00:47:38.789Z,66.27
2019-04-21T00:48:52.792Z,66.58
2019-04-21T00:49:45.383Z,66.69
2019-04-21T00:51:03.412Z,66.79
2019-04-21T00:52:00.279Z,66.89
2019-04-21T00:52:51.034Z,66.89
2019-04-21T00:53:56.076Z,66.69
2019-04-21T00:54:58.609Z,66.93
2019-04-21T00:56:07.225Z,66.72
2019-04-21T00:56:49.606Z,67.03
2019-04-21T00:57:51.415Z,66.93
2019-04-21T00:58:47.743Z,66.10
2019-04-21T00:59:46.397Z,67.24
2019-04-21T01:00:47.540Z,67.03
2019-04-21T01:01:43.678Z,66.82
2019-04-21T01:02:53.347Z,67.24
2019-04-21T01:03:55.127Z,66.69
2019-04-21T01:04:55.312Z,66.72
2019-04-21T01:05:51.842Z,67.24
2019-04-21T01:06:49.640Z,66.58
2019-04-21T01:07:46.884Z,67.13
2019-04-21T01:08:47.305Z,66.82
2019-04-21T01:09:42.688Z,67.13
2019-04-21T01:10:38.402Z,66.72
2019-04-21T01:11:51.919Z,67.10
2019-04-21T01:12:53.580Z,67.24
2019-04-21T01:13:53.349Z,66.82
2019-04-21T01:14:49.976Z,66.82
2019-04-21T01:15:49.015Z,66.72
2019-04-21T01:16:45.826Z,66.72
2019-04-21T01:17:46.037Z,66.61
2019-04-21T01:18:44.510Z,66.61
2019-04-21T01:19:39.799Z,66.51
2019-04-21T01:20:24.564Z,66.93
2019-04-21T01:21:23.559Z,67.03
2019-04-21T01:22:23.540Z,66.72
2019-04-21T01:23:23.533Z,67.24
2019-04-21T01:24:31.874Z,67.44
2019-04-21T01:25:33.049Z,67.24
2019-04-21T01:26:37.201Z,67.75
2019-04-21T01:27:45.676Z,67.65
2019-04-21T01:28:40.022Z,67.96
2019-04-21T01:29:51.340Z,67.85
2019-04-21T01:30:44.856Z,68.06
2019-04-21T01:31:42.616Z,68.27
2019-04-21T01:32:48.377Z,68.27
2019-04-21T01:33:48.369Z,68.27
2019-04-21T01:34:45.395Z,68.40
2019-04-21T01:35:44.179Z,68.51
2019-04-21T01:36:38.836Z,68.61
2019-04-21T01:37:49.628Z,68.82
2019-04-21T01:38:49.685Z,68.54
2019-04-21T01:39:48.188Z,68.82
2019-04-21T01:40:49.389Z,68.43
2019-04-21T01:41:45.032Z,68.43
2019-04-21T01:42:48.054Z,68.23
2019-04-21T01:43:42.762Z,68.64
2019-04-21T01:44:47.427Z,68.54
2019-04-21T01:45:44.795Z,67.91
2019-04-21T01:46:42.259Z,67.82
2019-04-21T01:47:40.507Z,68.57
2019-04-21T01:48:41.606Z,69.09
2019-04-21T01:49:34.752Z,69.19
2019-04-21T01:50:40.964Z,68.98
2019-04-21T01:51:50.706Z,69.92
2019-04-21T01:52:51.453Z,68.98
2019-04-21T01:53:53.445Z,68.46
2019-04-21T01:54:53.543Z,68.88
2019-04-21T01:55:43.147Z,69.19
2019-04-21T01:56:49.775Z,69.19
2019-04-21T01:57:42.619Z,68.91
2019-04-21T01:58:36.275Z,69.01
2019-04-21T01:59:33.466Z,69.22
2019-04-21T02:01:48.829Z,69.43
2019-04-21T02:02:47.713Z,68.49
2019-04-21T02:04:54.317Z,69.12
2019-04-21T02:05:55.289Z,69.01
2019-04-21T02:06:44.381Z,69.01
2019-04-21T02:07:44.773Z,68.91
2019-04-21T02:08:41.811Z,69.22
2019-04-21T02:09:46.348Z,69.95
2019-04-21T02:10:47.687Z,69.74
2019-04-21T02:11:53.383Z,69.64
2019-04-21T02:12:48.392Z,69.74
2019-04-21T02:13:53.773Z,69.74
2019-04-21T02:14:51.486Z,69.74
2019-04-21T02:15:52.771Z,69.53
2019-04-21T02:16:47.774Z,70.05
2019-04-21T02:17:49.420Z,69.84
2019-04-21T02:18:46.421Z,69.64
2019-04-21T02:19:35.998Z,70.05
2019-04-21T02:20:31.725Z,70.05
2019-04-21T02:21:39.275Z,69.32
2019-04-21T02:22:57.437Z,69.84
2019-04-21T02:24:07.137Z,70.39
2019-04-21T02:24:51.648Z,70.70
2019-04-21T02:25:47.154Z,70.67
2019-04-21T02:26:47.441Z,70.39
2019-04-21T02:27:42.950Z,70.50
2019-04-21T02:28:50.512Z,70.70
2019-04-21T02:29:48.724Z,70.60
2019-04-21T02:31:05.883Z,70.70
2019-04-21T02:31:57.081Z,70.53
2019-04-21T02:33:05.589Z,70.32
2019-04-21T02:33:58.302Z,71.25
2019-04-21T02:36:00.642Z,71.18
2019-04-21T02:37:13.223Z,71.25
2019-04-21T02:38:14.009Z,70.56
2019-04-21T02:39:08.276Z,71.08
2019-04-21T02:39:56.777Z,70.97
2019-04-21T02:40:49.520Z,71.08
2019-04-21T02:41:54.467Z,70.56
2019-04-21T02:44:02.594Z,71.70
2019-04-21T02:44:52.150Z,70.97
2019-04-21T02:45:56.169Z,70.67
2019-04-21T02:46:46.390Z,71.28
2019-04-21T02:48:09.689Z,71.28
2019-04-21T02:50:06.046Z,71.08
2019-04-21T02:52:02.892Z,71.28
2019-04-21T02:52:53.880Z,70.87
2019-04-21T02:55:51.228Z,71.80
2019-04-21T02:57:59.514Z,70.56
2019-04-21T02:59:03.106Z,70.87
2019-04-21T03:00:03.447Z,71.91
2019-04-21T03:01:01.059Z,72.11
2019-04-21T03:01:56.253Z,72.01
2019-04-21T03:03:01.070Z,71.80
2019-04-21T03:03:52.940Z,71.91
2019-04-21T03:04:53.147Z,72.25
2019-04-21T03:05:58.629Z,72.46
2019-04-21T03:07:01.568Z,71.94
2019-04-21T03:07:55.515Z,72.25
2019-04-21T03:09:08.816Z,71.11
2019-04-21T03:09:49.644Z,71.01
2019-04-21T03:11:08.930Z,72.18
2019-04-21T03:11:56.406Z,72.28
2019-04-21T03:12:52.980Z,71.97
2019-04-21T03:13:57.279Z,71.77
2019-04-21T03:15:59.814Z,72.49
2019-04-21T03:16:47.135Z,72.70
2019-04-21T03:17:56.843Z,72.39
2019-04-21T03:19:06.799Z,72.60
2019-04-21T03:20:14.626Z,72.60
2019-04-21T03:21:00.689Z,72.70
2019-04-21T03:22:02.609Z,72.80
2019-04-21T03:23:00.318Z,72.80
2019-04-21T03:23:58.102Z,72.80
2019-04-21T03:25:23.509Z,72.91
2019-04-21T03:25:52.388Z,72.49
2019-04-21T03:27:12.637Z,72.80
2019-04-21T03:29:12.056Z,73.01
2019-04-21T03:30:01.013Z,72.80
2019-04-21T03:31:32.116Z,72.91
2019-04-21T03:32:28.502Z,72.91
2019-04-21T03:33:23.892Z,73.11
2019-04-21T03:34:28.958Z,72.39
2019-04-21T03:35:32.697Z,72.08
2019-04-21T03:37:10.780Z,71.87
2019-04-21T03:37:53.019Z,71.97
2019-04-21T03:38:46.151Z,71.97
2019-04-21T03:40:07.511Z,72.39
2019-04-21T03:40:47.125Z,72.39
2019-04-21T03:41:57.511Z,72.39
2019-04-21T03:43:12.478Z,72.80
2019-04-21T03:43:59.204Z,72.39
2019-04-21T03:45:49.257Z,71.87
2019-04-21T03:47:55.239Z,71.97
2019-04-21T03:48:54.001Z,72.08
2019-04-21T03:50:04.773Z,71.87
2019-04-21T03:50:47.198Z,72.60
2019-04-21T03:51:55.366Z,72.80
2019-04-21T03:53:53.989Z,73.01
2019-04-21T03:54:53.794Z,72.70
2019-04-21T03:55:53.197Z,73.11
2019-04-21T03:59:56.235Z,73.05
2019-04-21T04:02:03.891Z,73.53
2019-04-21T04:03:13.423Z,72.80
2019-04-21T04:04:52.998Z,72.70
2019-04-21T04:06:13.387Z,72.63
2019-04-21T04:08:01.371Z,72.63
2019-04-21T04:09:06.389Z,72.53
2019-04-21T04:10:08.445Z,73.15
2019-04-21T04:11:04.639Z,73.01
2019-04-21T04:11:53.143Z,73.05
2019-04-21T04:12:57.736Z,73.53
2019-04-21T04:14:03.461Z,73.84
2019-04-21T04:15:56.568Z,73.11
2019-04-21T04:17:06.138Z,73.43
2019-04-21T04:18:07.807Z,73.43
2019-04-21T04:20:51.259Z,73.53
2019-04-21T04:22:56.347Z,73.32
2019-04-21T04:23:58.036Z,73.18
2019-04-21T04:24:57.891Z,73.39
2019-04-21T04:25:53.231Z,73.01
2019-04-21T04:27:59.473Z,72.36
2019-04-21T04:29:01.312Z,71.97
2019-04-21T04:29:50.684Z,72.60
2019-04-21T04:30:52.775Z,72.49
2019-04-21T04:32:53.687Z,72.91
2019-04-21T04:34:57.306Z,72.98
2019-04-21T04:36:01.398Z,73.28
2019-04-21T04:37:56.823Z,72.05
2019-04-21T04:39:02.691Z,71.80
2019-04-21T04:40:10.532Z,71.28
2019-04-21T04:40:59.643Z,71.18
2019-04-21T04:44:04.902Z,69.35
2019-04-21T04:47:05.519Z,67.71
2019-04-21T04:47:59.945Z,66.78
2019-04-21T04:48:51.353Z,66.44
2019-04-21T04:50:17.769Z,65.72
2019-04-21T04:50:53.588Z,65.82
2019-04-21T04:52:08.644Z,65.51
2019-04-21T04:53:47.270Z,65.37
2019-04-21T04:54:53.029Z,64.65
2019-04-21T04:57:03.209Z,64.28
2019-04-21T04:59:19.343Z,64.07
2019-04-21T05:00:01.783Z,63.97
2019-04-21T05:01:08.194Z,63.77
2019-04-21T05:02:00.208Z,63.77
2019-04-21T05:02:55.926Z,63.95
2019-04-21T05:04:05.940Z,63.12
2019-04-21T05:05:09.177Z,63.01
2019-04-21T05:06:05.168Z,62.75
2019-04-21T05:07:03.531Z,61.63
2019-04-21T05:09:52.530Z,52.65
2019-04-21T05:12:50.727Z,47.97
2019-04-21T05:13:54.984Z,45.99
2019-04-21T05:14:53.368Z,45.14
2019-04-21T05:15:55.820Z,44.54
2019-04-21T05:17:08.633Z,45.61
2019-04-21T05:17:50.645Z,45.59
2019-04-21T05:20:03.651Z,44.18
2019-04-21T05:20:52.256Z,42.61
2019-04-21T05:21:48.341Z,41.77
2019-04-21T05:22:42.284Z,41.66
2019-04-21T05:23:44.177Z,41.70
2019-04-21T05:24:37.724Z,42.61
2019-04-21T05:25:37.735Z,41.86
2019-04-21T05:26:42.271Z,40.51
2019-04-21T05:27:39.692Z,40.20
2019-04-21T05:28:36.936Z,39.73
2019-04-21T05:29:49.616Z,42.77
2019-04-21T05:30:52.846Z,44.26
2019-04-21T05:31:47.674Z,45.61
2019-04-21T05:32:45.218Z,45.79
2019-04-21T05:33:45.993Z,44.38
2019-04-21T05:34:42.613Z,43.26
2019-04-21T05:35:41.824Z,44.12
2019-04-21T05:36:45.483Z,45.81
2019-04-21T05:37:43.735Z,46.67
2019-04-21T05:38:39.249Z,48.55
2019-04-21T05:39:37.516Z,49.49
2019-04-21T05:40:35.867Z,50.04
2019-04-21T05:41:31.309Z,50.89
2019-04-21T05:42:44.435Z,51.83
2019-04-21T05:43:39.171Z,52.87
2019-04-21T05:44:56.776Z,53.49
2019-04-21T05:45:47.453Z,54.77
2019-04-21T05:46:49.205Z,54.46
2019-04-21T05:47:46.280Z,54.87
2019-04-21T05:48:46.936Z,56.41
2019-04-21T05:49:38.778Z,56.20
2019-04-21T05:50:40.113Z,56.38
2019-04-21T05:51:41.963Z,55.10
2019-04-21T05:52:38.389Z,53.19
2019-04-21T05:53:42.475Z,51.13
2019-04-21T05:54:52.318Z,46.64
2019-04-21T05:56:42.400Z,44.38
2019-04-21T05:57:43.143Z,43.23
2019-04-21T05:58:45.020Z,41.87
2019-04-21T05:59:43.605Z,41.52
2019-04-21T06:00:59.441Z,40.28
2019-04-21T06:01:50.343Z,41.20
2019-04-21T06:02:56.044Z,40.05
2019-04-21T06:05:53.330Z,39.58
2019-04-21T06:06:47.767Z,38.49
2019-04-21T06:07:42.720Z,35.66
2019-04-21T06:08:48.135Z,36.05
2019-04-21T06:09:52.375Z,36.05
2019-04-21T06:10:47.379Z,36.40
2019-04-21T06:11:45.768Z,36.80
2019-04-21T06:12:54.798Z,35.51
2019-04-21T06:13:48.176Z,36.90
2019-04-21T06:14:49.527Z,36.74
2019-04-21T06:15:51.302Z,37.23
2019-04-21T06:16:53.958Z,37.23
2019-04-21T06:17:44.641Z,37.54
2019-04-21T06:18:47.980Z,37.83
2019-04-21T06:19:52.663Z,37.26
2019-04-21T06:20:46.791Z,35.41
2019-04-21T06:21:40.519Z,35.46
2019-04-21T06:22:46.544Z,35.46
2019-04-21T06:23:42.367Z,31.87
2019-04-21T06:24:54.583Z,33.72
2019-04-21T06:25:54.593Z,34.33
2019-04-21T06:27:05.414Z,33.69
2019-04-21T06:27:46.094Z,34.34
2019-04-21T06:28:46.966Z,33.29
2019-04-21T06:29:45.207Z,34.69
2019-04-21T06:30:54.972Z,34.29
2019-04-21T06:32:16.304Z,34.67
2019-04-21T06:32:52.820Z,32.64
2019-04-21T06:33:44.624Z,33.53
2019-04-21T06:35:00.223Z,33.29
2019-04-21T06:36:00.709Z,32.46
2019-04-21T06:36:43.330Z,32.06
2019-04-21T06:37:56.811Z,32.56
2019-04-21T06:38:54.413Z,33.47
2019-04-21T06:40:01.716Z,33.89
2019-04-21T06:40:48.412Z,35.14
2019-04-21T06:41:39.504Z,33.91
2019-04-21T06:42:53.975Z,34.04
2019-04-21T06:43:54.863Z,34.94
2019-04-21T06:44:54.547Z,34.59
2019-04-21T06:45:50.719Z,33.46
2019-04-21T06:46:39.279Z,33.54
2019-04-21T06:47:51.401Z,33.99
2019-04-21T06:48:53.680Z,33.59
2019-04-21T06:49:45.800Z,34.11
2019-04-21T06:50:46.736Z,34.34
2019-04-21T06:51:44.841Z,34.98
2019-04-21T06:53:56.030Z,36.02
2019-04-21T06:54:50.754Z,36.20
2019-04-21T06:55:46.755Z,35.28
2019-04-21T06:57:44.465Z,35.21
2019-04-21T06:58:42.877Z,34.19
2019-04-21T06:59:41.861Z,34.16
2019-04-21T07:00:43.197Z,34.41
2019-04-21T07:03:53.489Z,31.02
2019-04-21T07:04:48.113Z,30.27
2019-04-21T07:05:51.403Z,32.03
2019-04-21T07:07:50.497Z,31.20
2019-04-21T07:08:56.617Z,32.71
2019-04-21T07:09:46.682Z,32.20
2019-04-21T07:10:48.776Z,32.56
2019-04-21T07:11:38.861Z,31.45
2019-04-21T07:12:43.536Z,30.66
2019-04-21T07:13:41.622Z,31.62
2019-04-21T07:14:44.124Z,33.86
2019-04-21T07:15:48.933Z,33.53
2019-04-21T07:16:44.992Z,31.90
2019-04-21T07:17:42.636Z,31.64
2019-04-21T07:18:53.422Z,33.39
2019-04-21T07:19:49.116Z,33.59
2019-04-21T07:20:44.914Z,34.69
2019-04-21T07:21:45.778Z,33.91
2019-04-21T07:22:42.809Z,35.41
2019-04-21T07:23:47.288Z,34.49
2019-04-21T07:24:43.442Z,34.16
2019-04-21T07:25:45.531Z,33.34
2019-04-21T07:26:44.501Z,33.86
2019-04-21T07:27:59.330Z,33.37
2019-04-21T07:28:54.442Z,35.41
2019-04-21T07:29:50.602Z,36.16
2019-04-21T07:30:48.748Z,35.78
2019-04-21T07:31:47.048Z,35.70
2019-04-21T07:32:49.719Z,37.06
2019-04-21T07:33:53.787Z,38.17
2019-04-21T07:34:46.165Z,38.97
2019-04-21T07:35:49.174Z,39.07
2019-04-21T07:36:52.578Z,40.08
2019-04-21T07:37:41.337Z,37.96
2019-04-21T07:38:41.058Z,38.47
2019-04-21T07:39:40.258Z,39.39
2019-04-21T07:40:33.680Z,39.51
2019-04-21T07:41:42.176Z,39.51
2019-04-21T07:42:40.062Z,39.61
2019-04-21T07:43:34.192Z,39.83
2019-04-21T07:44:35.234Z,39.13
2019-04-21T07:45:36.738Z,39.63
2019-04-21T07:46:36.606Z,39.15
2019-04-21T07:47:44.504Z,39.30
2019-04-21T07:48:43.151Z,40.31
2019-04-21T07:49:47.880Z,41.41
2019-04-21T07:50:31.502Z,40.17
2019-04-21T07:51:45.952Z,40.21
2019-04-21T07:52:47.022Z,40.94
2019-04-21T07:53:51.021Z,40.95
2019-04-21T07:54:44.415Z,41.66
2019-04-21T07:56:28.335Z,41.85
2019-04-21T07:57:36.724Z,42.54
2019-04-21T07:58:47.644Z,41.52
2019-04-21T07:59:52.240Z,41.63
2019-04-21T08:00:51.311Z,40.73
2019-04-21T08:01:39.513Z,41.44
2019-04-21T08:02:40.279Z,42.43
2019-04-21T08:03:43.839Z,41.73
2019-04-21T08:04:55.851Z,42.01
2019-04-21T08:05:58.477Z,40.98
2019-04-21T08:06:43.795Z,40.28
2019-04-21T08:07:54.284Z,40.09
2019-04-21T08:08:44.311Z,41.81
2019-04-21T08:09:40.961Z,41.42
2019-04-21T08:10:40.848Z,41.83
2019-04-21T08:11:36.722Z,43.63
2019-04-21T08:12:40.757Z,41.22
2019-04-21T08:13:44.953Z,40.09
2019-04-21T08:14:48.280Z,41.30
2019-04-21T08:15:39.547Z,41.71
2019-04-21T08:16:45.089Z,41.81
2019-04-21T08:17:41.418Z,41.41
2019-04-21T08:18:39.327Z,41.71
2019-04-21T08:19:36.924Z,41.20
2019-04-21T08:20:35.867Z,41.61
2019-04-21T08:21:43.010Z,41.30
2019-04-21T08:22:46.791Z,42.61
2019-04-21T08:23:40.236Z,39.99
2019-04-21T08:24:46.765Z,40.70
2019-04-21T08:25:45.943Z,43.63
2019-04-21T08:26:44.609Z,39.97
2019-04-21T08:27:50.560Z,40.17
2019-04-21T08:28:42.688Z,39.87
2019-04-21T08:29:45.972Z,40.16
2019-04-21T08:30:54.258Z,40.96
2019-04-21T08:31:50.034Z,41.47
2019-04-21T08:33:00.521Z,40.16
2019-04-21T08:34:49.639Z,38.75
2019-04-21T08:36:40.699Z,38.22
2019-04-21T08:37:37.080Z,39.53
2019-04-21T08:38:42.639Z,39.31
2019-04-21T08:39:49.757Z,39.39
2019-04-21T08:40:57.515Z,39.29
2019-04-21T08:41:41.132Z,40.18
2019-04-21T08:42:38.263Z,37.87
2019-04-21T08:43:42.653Z,38.28
2019-04-21T08:44:40.290Z,39.19
2019-04-21T08:45:45.339Z,37.18
2019-04-21T08:46:40.579Z,39.92
2019-04-21T08:47:39.624Z,38.28
2019-04-21T08:48:42.304Z,37.26
2019-04-21T08:49:41.308Z,38.15
2019-04-21T08:50:37.288Z,39.28
2019-04-21T08:51:41.280Z,39.03
2019-04-21T08:52:49.260Z,38.03
2019-04-21T08:53:42.746Z,36.42
2019-04-21T08:54:43.536Z,37.71
2019-04-21T08:55:41.985Z,37.30
2019-04-21T08:56:40.154Z,35.90
2019-04-21T08:57:50.747Z,36.94
2019-04-21T08:58:42.547Z,36.54
2019-04-21T08:59:36.357Z,37.34
2019-04-21T09:00:38.952Z,37.04
2019-04-21T09:01:43.461Z,38.15
2019-04-21T09:02:40.408Z,37.21
2019-04-21T09:03:43.407Z,38.21
2019-04-21T09:04:33.916Z,36.72
2019-04-21T09:05:41.143Z,37.32
2019-04-21T09:06:57.165Z,37.04
2019-04-21T09:07:41.692Z,37.04
2019-04-21T09:08:44.430Z,37.14
2019-04-21T09:09:44.400Z,36.94
2019-04-21T09:10:41.002Z,36.76
2019-04-21T09:11:38.301Z,36.86
2019-04-21T09:12:38.826Z,37.06
2019-04-21T09:13:36.964Z,36.94
2019-04-21T09:14:36.501Z,37.36
2019-04-21T09:15:35.111Z,37.46
2019-04-21T09:16:35.171Z,36.94
2019-04-21T09:17:32.845Z,37.14
2019-04-21T09:18:32.505Z,36.92
2019-04-21T09:19:51.887Z,36.11
2019-04-21T09:21:38.978Z,37.01
2019-04-21T09:22:37.702Z,35.08
2019-04-21T09:23:39.184Z,35.78
2019-04-21T09:24:42.813Z,35.48
2019-04-21T09:25:40.709Z,35.36
2019-04-21T09:26:35.605Z,35.36
2019-04-21T09:27:38.998Z,35.06
2019-04-21T09:28:36.986Z,35.28
2019-04-21T09:29:28.668Z,36.89
2019-04-21T09:30:19.805Z,35.46
2019-04-21T09:31:23.935Z,35.48
2019-04-21T09:32:23.877Z,35.80
2019-04-21T09:33:20.749Z,36.02
2019-04-21T09:34:24.931Z,35.91
2019-04-21T09:35:21.927Z,35.39
2019-04-21T09:36:21.660Z,35.10
2019-04-21T09:37:33.029Z,37.59
2019-04-21T09:38:27.614Z,36.16
2019-04-21T09:39:22.621Z,35.14
2019-04-21T09:40:29.098Z,33.32
2019-04-21T09:41:22.799Z,34.31
2019-04-21T09:42:20.167Z,35.10
2019-04-21T09:43:25.660Z,35.11
2019-04-21T09:44:25.971Z,33.71
2019-04-21T09:45:22.445Z,33.61
2019-04-21T09:46:18.551Z,34.29
2019-04-21T09:47:22.878Z,36.30
2019-04-21T09:48:22.189Z,34.11
2019-04-21T09:49:22.456Z,33.51
2019-04-21T09:50:19.838Z,33.89
2019-04-21T09:51:18.187Z,33.71
2019-04-21T09:52:20.904Z,34.02
2019-04-21T09:53:28.739Z,34.24
2019-04-21T09:54:24.771Z,33.72
2019-04-21T09:55:22.810Z,34.14
2019-04-21T09:56:31.383Z,33.84
2019-04-21T09:57:30.034Z,34.92
2019-04-21T09:58:26.342Z,33.22
2019-04-21T09:59:26.195Z,34.12
2019-04-21T10:00:24.479Z,34.11
2019-04-21T10:01:26.782Z,36.10
2019-04-21T10:02:32.469Z,33.67
2019-04-21T10:03:20.816Z,34.48
2019-04-21T10:04:18.699Z,33.24
2019-04-21T10:05:19.105Z,35.43
2019-04-21T10:06:19.571Z,30.04
2019-04-21T10:07:26.344Z,31.64
2019-04-21T10:08:19.012Z,32.44
2019-04-21T10:09:21.255Z,33.74
2019-04-21T10:10:19.145Z,31.56
2019-04-21T10:11:20.504Z,31.85
2019-04-21T10:12:17.960Z,34.17
2019-04-21T10:13:18.000Z,31.47
2019-04-21T10:14:17.937Z,32.27
2019-04-21T10:15:19.115Z,34.26
2019-04-21T10:16:17.919Z,35.55
2019-04-21T10:17:17.906Z,32.53
2019-04-21T10:18:17.905Z,31.15
2019-04-21T10:19:17.889Z,32.47
2019-04-21T10:20:17.874Z,33.47
2019-04-21T10:21:17.877Z,34.88
2019-04-21T10:22:19.030Z,35.66
2019-04-21T10:23:17.902Z,33.64
2019-04-21T10:24:18.070Z,32.03
2019-04-21T10:25:18.671Z,31.51
2019-04-21T10:26:18.782Z,31.59
2019-04-21T10:27:18.911Z,34.19
2019-04-21T10:28:18.978Z,32.18
2019-04-21T10:29:24.303Z,33.88
2019-04-21T10:30:18.768Z,30.28
2019-04-21T10:31:18.527Z,31.58
2019-04-21T10:32:21.311Z,32.41
2019-04-21T10:33:18.571Z,34.61
2019-04-21T10:34:19.048Z,33.50
2019-04-21T10:35:20.732Z,31.38
2019-04-21T10:36:17.706Z,32.01
2019-04-21T10:37:18.794Z,31.61
2019-04-21T10:38:29.217Z,31.31
2019-04-21T10:39:19.855Z,32.01
2019-04-21T10:40:18.058Z,31.71
2019-04-21T10:41:17.657Z,31.01
2019-04-21T10:42:17.645Z,32.03
2019-04-21T10:43:20.672Z,32.34
2019-04-21T10:44:18.934Z,33.94
2019-04-21T10:45:18.903Z,33.54
2019-04-21T10:46:17.601Z,32.12
2019-04-21T10:47:18.611Z,31.43
2019-04-21T10:48:18.827Z,31.34
2019-04-21T10:49:18.906Z,32.06
2019-04-21T10:50:18.398Z,31.17
2019-04-21T10:51:17.549Z,32.07
2019-04-21T10:52:17.558Z,31.57
2019-04-21T10:53:18.694Z,33.96
2019-04-21T10:54:17.923Z,32.74
2019-04-21T10:55:36.762Z,31.82
2019-04-21T10:56:27.422Z,31.11
2019-04-21T10:57:18.486Z,31.71
2019-04-21T10:58:18.332Z,32.20
2019-04-21T10:59:18.352Z,34.18
2019-04-21T11:00:18.727Z,31.68
2019-04-21T11:01:18.833Z,33.76
2019-04-21T11:02:17.449Z,29.95
2019-04-21T11:03:17.422Z,29.27
2019-04-21T11:04:23.663Z,29.17
2019-04-21T11:05:18.817Z,29.88
2019-04-21T11:06:18.775Z,29.98
2019-04-21T11:07:19.575Z,29.41
2019-04-21T11:08:24.623Z,30.22
2019-04-21T11:09:18.365Z,31.14
2019-04-21T11:10:18.300Z,31.02
2019-04-21T11:11:17.339Z,32.12
2019-04-21T11:12:17.617Z,30.32
2019-04-21T11:13:18.754Z,30.11
2019-04-21T11:14:17.841Z,30.22
2019-04-21T11:15:17.296Z,31.81
2019-04-21T11:16:17.373Z,31.99
2019-04-21T11:17:18.221Z,29.41
2019-04-21T11:18:17.757Z,32.01
2019-04-21T11:19:17.995Z,30.31
2019-04-21T11:20:17.358Z,29.81
2019-04-21T11:21:18.665Z,29.02
2019-04-21T11:22:17.224Z,30.02
2019-04-21T11:23:19.579Z,32.01
2019-04-21T11:24:18.114Z,32.21
2019-04-21T11:25:17.856Z,32.70
2019-04-21T11:26:18.067Z,32.48
2019-04-21T11:27:17.169Z,29.99
2019-04-21T11:28:17.160Z,29.90
2019-04-21T11:29:17.173Z,30.21
2019-04-21T11:30:17.792Z,31.81
2019-04-21T11:31:18.685Z,29.41
2019-04-21T11:32:17.117Z,30.21
2019-04-21T11:33:17.392Z,28.82
2019-04-21T11:34:17.096Z,29.32
2019-04-21T11:35:17.199Z,30.15
2019-04-21T11:36:17.438Z,31.34
2019-04-21T11:37:17.065Z,29.74
2019-04-21T11:38:20.420Z,30.44
2019-04-21T11:39:28.734Z,29.52
2019-04-21T11:40:19.933Z,29.74
2019-04-21T11:41:18.020Z,29.93
2019-04-21T11:42:17.607Z,29.82
2019-04-21T11:43:17.787Z,29.94
2019-04-21T11:44:18.295Z,30.14
2019-04-21T11:45:16.990Z,30.34
2019-04-21T11:46:18.223Z,29.77
2019-04-21T11:47:18.497Z,31.85
2019-04-21T11:48:16.948Z,29.75
2019-04-21T11:49:17.969Z,29.95
2019-04-21T11:50:17.101Z,30.84
2019-04-21T11:51:17.195Z,28.64
2019-04-21T11:52:16.907Z,28.45
2019-04-21T11:53:16.990Z,28.95
2019-04-21T11:54:17.084Z,29.15
2019-04-21T11:55:16.883Z,28.65
2019-04-21T11:56:16.997Z,29.16
2019-04-21T11:57:22.727Z,29.95
2019-04-21T11:58:18.151Z,30.04
2019-04-21T11:59:17.507Z,30.64
2019-04-21T12:00:17.646Z,28.74
2019-04-21T12:01:17.957Z,29.62
2019-04-21T12:02:17.341Z,28.14
2019-04-21T12:03:17.396Z,28.35
2019-04-21T12:04:17.971Z,30.05
2019-04-21T12:05:17.312Z,29.64
2019-04-21T12:06:17.467Z,30.32
2019-04-21T12:07:17.526Z,28.32
2019-04-21T12:08:26.063Z,29.52
2019-04-21T12:09:18.937Z,30.01
2019-04-21T12:10:17.676Z,29.49
2019-04-21T12:11:17.758Z,29.49
2019-04-21T12:12:17.001Z,30.10
2019-04-21T12:13:16.685Z,27.50
2019-04-21T12:14:16.676Z,28.59
2019-04-21T12:15:16.787Z,29.60
2019-04-21T12:16:16.992Z,29.21
2019-04-21T12:17:16.644Z,29.71
2019-04-21T12:18:17.828Z,29.61
2019-04-21T12:19:16.812Z,29.61
2019-04-21T12:20:16.805Z,29.62
2019-04-21T12:21:16.606Z,28.12
2019-04-21T12:22:22.245Z,29.93
2019-04-21T12:23:18.389Z,30.73
2019-04-21T12:24:17.390Z,30.11
2019-04-21T12:25:16.572Z,28.11
2019-04-21T12:26:17.925Z,30.41
2019-04-21T12:27:16.538Z,29.99
2019-04-21T12:28:17.425Z,28.69
2019-04-21T12:29:16.746Z,30.19
2019-04-21T12:30:17.715Z,28.69
2019-04-21T12:31:17.799Z,31.10
2019-04-21T12:32:16.489Z,31.38
2019-04-21T12:33:16.483Z,29.98
2019-04-21T12:34:16.465Z,28.48
2019-04-21T12:35:17.621Z,28.50
2019-04-21T12:36:17.769Z,27.70
2019-04-21T12:37:17.063Z,29.61
2019-04-21T12:38:27.993Z,28.91
2019-04-21T12:39:18.646Z,29.69
2019-04-21T12:40:16.848Z,27.70
2019-04-21T12:41:16.415Z,29.11
2019-04-21T12:42:16.651Z,29.61
2019-04-21T12:43:16.809Z,28.01
2019-04-21T12:44:16.359Z,29.90
2019-04-21T12:45:17.397Z,30.11
2019-04-21T12:46:16.345Z,27.89
2019-04-21T12:47:16.344Z,28.50
2019-04-21T12:48:16.321Z,28.19
2019-04-21T12:49:16.309Z,27.29
2019-04-21T12:50:17.028Z,29.21
2019-04-21T12:51:17.552Z,28.39
2019-04-21T12:52:17.634Z,28.19
2019-04-21T12:53:17.867Z,26.89
2019-04-21T12:54:17.543Z,25.99
2019-04-21T12:55:17.579Z,27.51
2019-04-21T12:56:16.247Z,28.41
2019-04-21T12:57:17.136Z,26.91
2019-04-21T12:58:17.284Z,27.31
2019-04-21T12:59:16.952Z,28.01
2019-04-21T13:00:16.191Z,29.49
2019-04-21T13:01:16.740Z,28.89
2019-04-21T13:02:16.173Z,28.09
2019-04-21T13:03:17.425Z,29.99
2019-04-21T13:04:16.155Z,28.39
2019-04-21T13:05:16.138Z,28.39
2019-04-21T13:06:16.135Z,31.48
2019-04-21T13:07:17.306Z,29.38
2019-04-21T13:08:17.564Z,27.98
2019-04-21T13:09:18.715Z,28.18
2019-04-21T13:10:16.214Z,29.88
2019-04-21T13:11:17.139Z,28.68
2019-04-21T13:12:17.208Z,29.38
2019-04-21T13:13:16.055Z,28.18
2019-04-21T13:14:16.040Z,28.88
2019-04-21T13:15:16.029Z,30.58
2019-04-21T13:16:16.033Z,28.87
2019-04-21T13:17:17.227Z,28.47
2019-04-21T13:18:16.444Z,29.36
2019-04-21T13:19:15.986Z,29.47
2019-04-21T13:20:17.058Z,28.77
2019-04-21T13:21:16.145Z,29.06
2019-04-21T13:22:16.182Z,29.28
2019-04-21T13:23:16.761Z,29.86
2019-04-21T13:24:16.060Z,29.86
2019-04-21T13:25:16.076Z,29.86
2019-04-21T13:26:27.140Z,30.36
2019-04-21T13:27:17.777Z,29.57
2019-04-21T13:28:16.564Z,29.06
2019-04-21T13:29:16.489Z,29.27
2019-04-21T13:30:15.868Z,29.46
2019-04-21T13:31:16.151Z,28.05
2019-04-21T13:32:16.351Z,29.75
2019-04-21T13:33:15.849Z,28.17
2019-04-21T13:34:15.977Z,28.27
2019-04-21T13:35:17.058Z,29.67
2019-04-21T13:36:15.875Z,27.48
2019-04-21T13:37:17.239Z,29.60
2019-04-21T13:38:24.499Z,28.50
2019-04-21T13:39:48.799Z,29.60
2019-04-21T13:40:34.200Z,29.60
2019-04-21T13:41:29.784Z,29.68
2019-04-21T13:42:25.847Z,28.59
2019-04-21T13:43:17.065Z,29.10
2019-04-21T13:44:17.629Z,27.80
2019-04-21T13:45:16.293Z,28.30
2019-04-21T13:46:15.696Z,29.69